Cajamarca, Peru
Current Conditions -  °F | °C
As of 6:00 PM on Saturday 25 Oct 2014 (Local Time) from SPJR Reporting Station
Overcast Overcast  
Wind Chill: 59°   Ceiling: 4000
Heat Index: 59°   Visibility: 6mi
Dew Point: 48°   Wind: 6mph
Humidity: 67%   Direction: 130°SE
Pressure: 30.36"   Gusts: NA
Location:  7.16°S, 78.52°W
Report Text: SPJR 252300Z 13005KT 9999 SCT026 OVC040 15/09 Q1028 RMK PP000
Loading
Personal Weather Stations






























Interactive Weather Map
Tropical Storm Tracking
New forecast layout! Learn more

10-Day Weather Forecast

Advertisements
Track Severe Weather on mobile